createdAt,value
2022-11-30T17:11:02.765Z,94865.72
2022-11-30T17:13:29.478Z,94865.56
2022-11-30T17:15:56.219Z,94850.59
2022-11-30T17:18:22.960Z,94862.25
2022-11-30T17:20:49.701Z,94863.94
2022-11-30T17:23:16.435Z,94867.22
2022-11-30T17:25:43.187Z,94867.22
2022-11-30T17:28:09.925Z,94872.66
2022-11-30T17:30:36.797Z,94865.94
2022-11-30T17:33:04.559Z,94871.03
2022-11-30T17:35:31.260Z,94871.97
2022-11-30T17:37:57.988Z,94874.56
2022-11-30T17:40:25.028Z,94865.25
2022-11-30T17:42:51.769Z,94873.38
2022-11-30T17:45:18.625Z,94869.03
2022-11-30T17:47:45.345Z,94871.75
2022-11-30T17:50:13.902Z,94873.63
2022-11-30T17:52:40.773Z,94874.22
2022-11-30T17:55:08.504Z,94878.34
2022-11-30T17:57:37.615Z,94879.09
2022-11-30T18:00:06.385Z,94866.06
2022-11-30T18:02:34.231Z,94869.13
2022-11-30T18:05:01.033Z,94867.25
2022-11-30T18:07:27.907Z,94870.69
2022-11-30T18:09:54.732Z,94882.28
2022-11-30T18:12:21.493Z,94881.44
2022-11-30T18:14:48.851Z,94881.69
2022-11-30T18:17:15.796Z,94874.97
2022-11-30T18:19:42.527Z,94873.16
2022-11-30T18:22:09.301Z,94871.78
2022-11-30T18:24:36.070Z,94876.47
2022-11-30T18:27:02.786Z,94881.56
2022-11-30T18:29:29.657Z,94874.84
2022-11-30T18:31:56.376Z,94879.84
2022-11-30T18:34:23.084Z,94891.50
2022-11-30T18:36:49.848Z,94890.19
2022-11-30T18:39:16.600Z,94888.78
2022-11-30T18:41:43.349Z,94880.28
2022-11-30T18:44:10.349Z,94877.56
2022-11-30T18:46:37.139Z,94881.94
2022-11-30T18:49:03.949Z,94883.59
2022-11-30T18:51:31.381Z,94886.88
2022-11-30T18:54:04.283Z,94885.25
2022-11-30T18:56:33.611Z,94887.38
2022-11-30T18:59:04.840Z,94894.25
2022-11-30T19:01:32.784Z,94885.75
2022-11-30T19:04:03.842Z,94890.69
2022-11-30T19:06:34.661Z,94884.66
2022-11-30T19:09:10.907Z,94891.06
2022-11-30T19:11:39.804Z,94885.97
2022-11-30T19:14:07.309Z,94895.06
2022-11-30T19:16:35.438Z,94884.09
2022-11-30T19:19:07.058Z,94890.94
2022-11-30T19:21:34.646Z,94891.78
2022-11-30T19:24:01.507Z,94890.94
2022-11-30T19:26:28.631Z,94886.69
2022-11-30T19:28:57.236Z,94885.16
2022-11-30T19:31:25.906Z,94893.19
2022-11-30T19:33:55.494Z,94890.38
2022-11-30T19:36:28.165Z,94891.19
2022-11-30T19:38:55.644Z,94886.25
2022-11-30T19:41:22.435Z,94897.09
2022-11-30T19:44:01.280Z,94898.75
2022-11-30T19:46:31.684Z,94895.25
2022-11-30T19:49:01.462Z,94887.56
2022-11-30T19:51:30.421Z,94899.00
2022-11-30T19:53:57.680Z,94899.59
2022-11-30T19:56:25.857Z,94879.63
2022-11-30T19:58:53.237Z,94895.00
2022-11-30T20:01:24.095Z,94906.22
2022-11-30T20:03:56.941Z,94901.94
2022-11-30T20:06:31.406Z,94890.28
2022-11-30T20:08:58.142Z,94898.06
2022-11-30T20:11:25.268Z,94895.09
2022-11-30T20:13:52.732Z,94892.16
2022-11-30T20:16:22.252Z,94885.88
2022-11-30T20:18:54.344Z,94894.28
2022-11-30T20:21:24.774Z,94892.66
2022-11-30T20:23:53.309Z,94880.44
2022-11-30T20:26:23.902Z,94880.69
2022-11-30T20:28:51.540Z,94880.34
2022-11-30T20:31:21.660Z,94896.28
2022-11-30T20:33:48.952Z,94891.34
2022-11-30T20:36:17.269Z,94894.66
2022-11-30T20:38:44.657Z,94900.09
2022-11-30T20:41:15.684Z,94899.47
2022-11-30T20:43:43.330Z,94903.75
2022-11-30T20:46:24.054Z,94891.19
2022-11-30T20:48:51.863Z,94893.38
2022-11-30T20:51:30.798Z,94893.75
2022-11-30T20:54:05.711Z,94909.69
2022-11-30T20:56:35.427Z,94915.59
2022-11-30T20:59:05.968Z,94913.81
2022-11-30T21:01:33.613Z,94918.41
2022-11-30T21:04:01.373Z,94912.28
2022-11-30T21:06:30.894Z,94908.81
2022-11-30T21:08:58.889Z,94923.41
2022-11-30T21:11:27.443Z,94915.00
2022-11-30T21:13:54.840Z,94923.66
2022-11-30T21:16:28.179Z,94917.75
2022-11-30T21:18:58.315Z,94922.81
2022-11-30T21:21:30.642Z,94916.19
2022-11-30T21:24:00.643Z,94914.94
2022-11-30T21:26:37.427Z,94914.94
2022-11-30T21:29:10.485Z,94914.56
2022-11-30T21:31:37.409Z,94914.22
2022-11-30T21:34:04.345Z,94915.03
2022-11-30T21:36:31.158Z,94909.25
2022-11-30T21:39:07.920Z,94907.13
2022-11-30T21:41:39.675Z,94906.66
2022-11-30T21:44:10.396Z,94904.41
2022-11-30T21:46:37.636Z,94907.94
2022-11-30T21:49:04.918Z,94896.50
2022-11-30T21:51:32.461Z,94895.91
2022-11-30T21:54:02.906Z,94902.03
2022-11-30T21:56:34.687Z,94902.16
2022-11-30T21:59:01.805Z,94900.75
2022-11-30T22:01:35.790Z,94904.19
2022-11-30T22:04:04.892Z,94902.88
2022-11-30T22:06:34.118Z,94905.13
2022-11-30T22:09:07.917Z,94901.69
2022-11-30T22:11:41.351Z,94896.59
2022-11-30T22:14:13.440Z,94901.22
2022-11-30T22:16:40.462Z,94893.78
2022-11-30T22:19:07.777Z,94902.16
2022-11-30T22:21:35.820Z,94897.44
2022-11-30T22:24:06.400Z,94904.63
2022-11-30T22:26:36.885Z,94901.59
2022-11-30T22:29:06.407Z,94898.97
2022-11-30T22:31:37.700Z,94905.59
2022-11-30T22:34:05.084Z,94887.03
2022-11-30T22:36:34.111Z,94905.81
2022-11-30T22:39:07.668Z,94893.19
2022-11-30T22:41:34.405Z,94893.66
2022-11-30T22:44:01.353Z,94901.94
2022-11-30T22:46:31.500Z,94898.16
2022-11-30T22:49:03.759Z,94898.63
2022-11-30T22:51:33.051Z,94912.56
2022-11-30T22:54:01.165Z,94908.69
2022-11-30T22:56:33.975Z,94908.56
2022-11-30T22:59:01.154Z,94907.00
2022-11-30T23:01:37.255Z,94910.09
2022-11-30T23:04:11.577Z,94903.00
2022-11-30T23:06:41.302Z,94900.97
2022-11-30T23:09:13.456Z,94904.41
2022-11-30T23:11:40.354Z,94895.56
2022-11-30T23:14:08.363Z,94899.09
2022-11-30T23:16:36.908Z,94917.53
2022-11-30T23:19:05.459Z,94907.59
2022-11-30T23:21:44.931Z,94912.78
2022-11-30T23:24:17.049Z,94900.28
2022-11-30T23:26:44.214Z,94908.78
2022-11-30T23:29:14.080Z,94906.53
2022-11-30T23:31:42.778Z,94919.31
2022-11-30T23:34:17.393Z,94910.22
2022-11-30T23:36:44.265Z,94903.34
2022-11-30T23:39:15.025Z,94910.22
2022-11-30T23:41:42.633Z,94911.28
2022-11-30T23:44:10.901Z,94900.28
2022-11-30T23:46:38.165Z,94903.22
2022-11-30T23:49:05.111Z,94897.31
2022-11-30T23:51:32.112Z,94895.78
2022-11-30T23:53:58.879Z,94895.31
2022-11-30T23:56:25.638Z,94894.81
2022-11-30T23:58:52.801Z,94897.66
